Time;durP1;ratioP1;P1;durP2;ratioP2;P2;SDS_P1;SDS_P2;PMS_P1;PMS_P2;Temp;Humidity;BMP_temperature;BMP_pressure;BME280_temperature;BME280_humidity;BME280_pressure;Samples;Min_cycle;Max_cycle;Signal;HPM_P1;HPM_P2
2023/03/14 00:00:05;;;;;;;;;;;;;;;15.07;66.42;98469.81;1272927;23;632;-66
2023/03/14 00:00:56;;;;;;;;;;;;;;;15.09;66.00;98473.16;1273598;23;657;-66
2023/03/14 00:01:47;;;;;;;;;;;;;;;15.07;66.37;98478.69;1272545;23;1920;-66
2023/03/14 00:02:37;;;;;;;;;;;;;;;15.08;66.17;98479.53;1272398;23;617;-66
2023/03/14 00:03:28;;;;;;;;;;;;;;;15.07;66.13;98477.88;1272567;23;630;-67
2023/03/14 00:04:18;;;;;;;;;;;;;;;15.09;66.34;98483.88;1271139;23;658;-67
2023/03/14 00:05:08;;;;;;;;;;;;;;;15.09;66.41;98479.34;1273110;23;669;-67
2023/03/14 00:05:59;;;;;;;;;;;;;;;15.10;66.27;98474.81;1273298;23;720;-66
2023/03/14 00:06:49;;;;;;;;;;;;;;;15.08;66.33;98488.41;1272704;23;670;-66
2023/03/14 00:07:40;;;;;;;;;;;;;;;15.09;66.28;98478.50;1272822;23;622;-66
2023/03/14 00:08:30;;;;;;;;;;;;;;;15.09;66.09;98476.66;1272532;23;606;-67
2023/03/14 00:09:21;;;;;;;;;;;;;;;15.09;66.07;98473.97;1272533;23;645;-66
2023/03/14 00:10:12;;;;;;;;;;;;;;;15.09;66.17;98483.88;1272414;23;610;-66
2023/03/14 00:11:02;;;;;;;;;;;;;;;15.10;66.02;98480.19;1271612;23;649;-66
2023/03/14 00:11:53;;;;;;;;;;;;;;;15.10;66.06;98472.13;1272510;23;668;-67
2023/03/14 00:12:43;;;;;;;;;;;;;;;15.08;65.91;98477.69;1273279;23;749;-67
2023/03/14 00:13:33;;;;;;;;;;;;;;;15.08;66.82;98476.84;1272447;23;625;-66
2023/03/14 00:14:24;;;;;;;;;;;;;;;15.06;66.19;98474.34;1272537;23;642;-66
2023/03/14 00:15:14;;;;;;;;;;;;;;;15.07;66.18;98483.22;1271516;23;602;-66
2023/03/14 00:16:05;;;;;;;;;;;;;;;15.08;66.48;98479.53;1272484;23;677;-66
2023/03/14 00:16:55;;;;;;;;;;;;;;;15.08;66.44;98482.22;1272586;23;626;-66
2023/03/14 00:17:45;;;;;;;;;;;;;;;15.08;66.41;98482.22;1272687;23;626;-66
2023/03/14 00:18:36;;;;;;;;;;;;;;;15.08;66.39;98480.34;1272808;23;665;-66
2023/03/14 00:19:26;;;;;;;;;;;;;;;15.07;66.31;98477.88;1271814;23;662;-66
2023/03/14 00:20:17;;;;;;;;;;;;;;;15.06;66.02;98482.41;1272714;23;662;-66
2023/03/14 00:21:07;;;;;;;;;;;;;;;15.07;65.98;98485.91;1271567;23;681;-67
2023/03/14 00:21:58;;;;;;;;;;;;;;;15.06;66.04;98476.19;1271791;23;1942;-66
2023/03/14 00:22:48;;;;;;;;;;;;;;;15.04;66.15;98486.31;1274179;23;645;-67
2023/03/14 00:23:38;;;;;;;;;;;;;;;15.02;66.44;98480.28;1272529;23;638;-67
2023/03/14 00:24:29;;;;;;;;;;;;;;;15.02;66.44;98488.34;1272579;23;669;-66
2023/03/14 00:25:19;;;;;;;;;;;;;;;15.00;66.59;98483.16;1271661;23;602;-66
2023/03/14 00:26:10;;;;;;;;;;;;;;;15.00;65.77;98475.13;1272392;23;670;-67
2023/03/14 00:27:00;;;;;;;;;;;;;;;15.00;66.33;98474.28;1274375;23;641;-66
2023/03/14 00:27:51;;;;;;;;;;;;;;;15.01;66.36;98484.00;1272371;23;649;-66
2023/03/14 00:28:42;;;;;;;;;;;;;;;15.01;66.47;98473.25;1273436;23;657;-66
2023/03/14 00:29:32;;;;;;;;;;;;;;;14.99;66.24;98478.81;1272514;23;630;-66
2023/03/14 00:30:22;;;;;;;;;;;;;;;15.01;66.06;98470.59;1271900;23;661;-66
2023/03/14 00:31:13;;;;;;;;;;;;;;;15.00;65.94;98472.44;1272712;23;633;-66
2023/03/14 00:32:03;;;;;;;;;;;;;;;15.01;66.29;98473.25;1274395;23;614;-67
2023/03/14 00:32:54;;;;;;;;;;;;;;;15.02;66.02;98469.56;1271285;23;796;-67
2023/03/14 00:33:44;;;;;;;;;;;;;;;15.02;66.11;98464.19;1272965;23;613;-66
2023/03/14 00:34:35;;;;;;;;;;;;;;;15.01;66.14;98466.03;1273260;23;605;-67
2023/03/14 00:35:25;;;;;;;;;;;;;;;15.00;66.08;98475.13;1273368;23;556;-66
2023/03/14 00:36:15;;;;;;;;;;;;;;;14.99;66.54;98472.63;1271726;23;685;-66
2023/03/14 00:37:06;;;;;;;;;;;;;;;14.98;66.08;98474.47;1271773;23;637;-67
2023/03/14 00:37:56;;;;;;;;;;;;;;;14.99;66.34;98464.56;1271004;23;637;-66
2023/03/14 00:38:47;;;;;;;;;;;;;;;15.00;66.05;98468.91;1272928;23;708;-66
2023/03/14 00:39:37;;;;;;;;;;;;;;;15.00;65.78;98469.75;1273206;23;656;-66
2023/03/14 00:40:27;;;;;;;;;;;;;;;14.99;66.26;98468.09;1272272;23;666;-66
2023/03/14 00:41:18;;;;;;;;;;;;;;;15.00;66.19;98463.56;1272514;23;669;-66
2023/03/14 00:42:08;;;;;;;;;;;;;;;15.00;66.17;98471.59;1272564;23;693;-67
2023/03/14 00:42:59;;;;;;;;;;;;;;;14.98;65.78;98458.38;1272441;23;657;-66
2023/03/14 00:43:49;;;;;;;;;;;;;;;14.99;66.11;98464.56;1274148;23;677;-66
2023/03/14 00:44:40;;;;;;;;;;;;;;;14.99;65.88;98457.34;1271632;23;696;-67
2023/03/14 00:45:30;;;;;;;;;;;;;;;14.99;66.32;98467.25;1272193;23;599;-66
2023/03/14 00:46:20;;;;;;;;;;;;;;;14.98;65.93;98466.41;1272280;23;674;-66
2023/03/14 00:47:11;;;;;;;;;;;;;;;15.00;66.03;98469.75;1274231;23;630;-66
2023/03/14 00:48:01;;;;;;;;;;;;;;;15.01;66.07;98481.31;1272646;23;909;-66
2023/03/14 00:48:52;;;;;;;;;;;;;;;14.99;65.87;98467.25;1272717;23;747;-66
2023/03/14 00:49:43;;;;;;;;;;;;;;;14.98;66.44;98469.09;1273484;23;704;-66
2023/03/14 00:50:33;;;;;;;;;;;;;;;14.99;66.07;98486.03;1271775;23;626;-66
2023/03/14 00:51:24;;;;;;;;;;;;;;;14.98;66.17;98477.16;1272322;23;736;-66
2023/03/14 00:52:14;;;;;;;;;;;;;;;14.98;66.40;98484.34;1274083;23;630;-67
2023/03/14 00:53:05;;;;;;;;;;;;;;;14.98;65.97;98492.41;1272459;23;621;-67
2023/03/14 00:53:55;;;;;;;;;;;;;;;14.98;66.34;98487.03;1273229;23;771;-67
2023/03/14 00:54:45;;;;;;;;;;;;;;;14.98;65.99;98492.41;1272641;23;622;-66
2023/03/14 00:55:36;;;;;;;;;;;;;;;14.97;66.33;98491.56;1271981;23;657;-66
2023/03/14 00:56:26;;;;;;;;;;;;;;;14.96;66.57;98489.91;1272290;23;654;-66
2023/03/14 00:57:17;;;;;;;;;;;;;;;14.96;66.10;98481.84;1272696;23;743;-67
2023/03/14 00:58:07;;;;;;;;;;;;;;;14.97;66.00;98485.38;1274433;23;657;-66
2023/03/14 00:58:57;;;;;;;;;;;;;;;14.96;66.55;98491.75;1271481;23;622;-66
2023/03/14 00:59:48;;;;;;;;;;;;;;;14.95;66.70;98482.88;1272487;23;645;-66
2023/03/14 01:00:38;;;;;;;;;;;;;;;14.95;66.36;98493.59;1272272;23;650;-66
2023/03/14 01:01:29;;;;;;;;;;;;;;;14.95;66.78;98485.56;1272430;23;641;-66
2023/03/14 01:02:19;;;;;;;;;;;;;;;14.96;66.46;98483.69;1274375;23;610;-66
2023/03/14 01:03:10;;;;;;;;;;;;;;;14.94;66.51;98486.56;1271765;23;653;-66
2023/03/14 01:04:00;;;;;;;;;;;;;;;14.92;66.67;98494.78;1274419;23;589;-66
2023/03/14 01:04:50;;;;;;;;;;;;;;;14.91;66.63;98494.97;1271596;23;669;-66
2023/03/14 01:05:41;;;;;;;;;;;;;;;14.91;66.65;98503.84;1272553;23;658;-66
2023/03/14 01:06:31;;;;;;;;;;;;;;;14.90;66.40;98486.09;1271479;23;637;-66
2023/03/14 01:07:22;;;;;;;;;;;;;;;14.90;66.44;98478.06;1272288;23;673;-66
2023/03/14 01:08:12;;;;;;;;;;;;;;;14.91;66.39;98481.56;1272275;23;602;-66
2023/03/14 01:09:03;;;;;;;;;;;;;;;14.92;66.43;98486.75;1272597;23;676;-66
2023/03/14 01:09:53;;;;;;;;;;;;;;;14.93;66.23;98488.41;1272488;23;610;-66
2023/03/14 01:10:44;;;;;;;;;;;;;;;14.93;66.38;98485.72;1271797;23;695;-66
2023/03/14 01:11:34;;;;;;;;;;;;;;;14.92;66.25;98484.06;1272561;23;661;-66
2023/03/14 01:12:25;;;;;;;;;;;;;;;14.92;66.17;98483.22;1271524;23;665;-66
2023/03/14 01:13:15;;;;;;;;;;;;;;;14.93;66.40;98487.59;1271320;23;657;-66
2023/03/14 01:14:05;;;;;;;;;;;;;;;14.90;66.26;98488.78;1272909;23;645;-66
2023/03/14 01:14:56;;;;;;;;;;;;;;;14.90;66.60;98478.06;1273139;23;633;-66
2023/03/14 01:15:46;;;;;;;;;;;;;;;14.88;66.32;98484.63;1272194;23;665;-66
2023/03/14 01:16:37;;;;;;;;;;;;;;;14.88;66.29;98480.09;1272670;23;649;-66
2023/03/14 01:17:27;;;;;;;;;;;;;;;14.90;66.51;98485.25;1272637;23;653;-66
2023/03/14 01:18:18;;;;;;;;;;;;;;;14.89;66.28;98483.59;1272605;23;641;-67
2023/03/14 01:19:08;;;;;;;;;;;;;;;14.89;66.35;98488.97;1272518;23;630;-66
2023/03/14 01:19:58;;;;;;;;;;;;;;;14.88;66.63;98474.72;1271739;23;625;-66
2023/03/14 01:20:49;;;;;;;;;;;;;;;14.89;66.27;98484.44;1272577;23;618;-66
2023/03/14 01:21:39;;;;;;;;;;;;;;;14.89;66.42;98479.06;1272160;23;1889;-66
2023/03/14 01:22:30;;;;;;;;;;;;;;;14.87;66.17;98483.78;1272370;23;656;-66
2023/03/14 01:23:20;;;;;;;;;;;;;;;14.87;66.57;98483.78;1274165;23;1091;-66
2023/03/14 01:24:10;;;;;;;;;;;;;;;14.89;66.44;98480.91;1272608;23;626;-66
2023/03/14 01:25:01;;;;;;;;;;;;;;;14.88;66.34;98488.13;1272441;23;633;-66
2023/03/14 01:25:51;;;;;;;;;;;;;;;14.88;65.93;98482.78;1272644;23;637;-66
2023/03/14 01:26:42;;;;;;;;;;;;;;;14.88;66.05;98481.94;1271848;23;716;-66
2023/03/14 01:27:32;;;;;;;;;;;;;;;14.87;65.98;98483.78;1274321;23;610;-66
2023/03/14 01:28:23;;;;;;;;;;;;;;;14.87;65.93;98489.16;1272372;23;638;-65
2023/03/14 01:29:13;;;;;;;;;;;;;;;14.87;66.17;98488.31;1271720;23;614;-66
2023/03/14 01:30:03;;;;;;;;;;;;;;;14.87;66.36;98481.09;1272356;23;684;-66
2023/03/14 01:30:54;;;;;;;;;;;;;;;14.86;66.52;98500.91;1272593;23;681;-66
2023/03/14 01:31:44;;;;;;;;;;;;;;;14.87;66.37;98497.19;1271714;23;618;-66
2023/03/14 01:32:35;;;;;;;;;;;;;;;14.87;66.43;98501.72;1272280;23;626;-66
2023/03/14 01:33:25;;;;;;;;;;;;;;;14.85;66.20;98495.75;1272228;23;661;-66
2023/03/14 01:34:16;;;;;;;;;;;;;;;14.84;66.52;98494.06;1271706;23;617;-66
2023/03/14 01:35:06;;;;;;;;;;;;;;;14.83;66.71;98495.91;1273102;23;692;-66
2023/03/14 01:35:56;;;;;;;;;;;;;;;14.83;66.23;98493.25;1272308;23;657;-66
2023/03/14 01:36:47;;;;;;;;;;;;;;;14.83;66.07;98495.91;1272332;23;657;-66
2023/03/14 01:37:37;;;;;;;;;;;;;;;14.82;66.25;98502.28;1272505;23;621;-66
2023/03/14 01:38:28;;;;;;;;;;;;;;;14.82;66.46;98501.47;1272389;23;685;-67
2023/03/14 01:39:18;;;;;;;;;;;;;;;14.83;66.30;98495.91;1273953;23;578;-67
2023/03/14 01:40:09;;;;;;;;;;;;;;;14.82;66.53;98490.75;1271561;23;636;-67
2023/03/14 01:40:59;;;;;;;;;;;;;;;14.80;66.56;98490.91;1271335;23;669;-66
2023/03/14 01:41:49;;;;;;;;;;;;;;;14.80;66.67;98495.44;1272176;23;1908;-66
2023/03/14 01:42:40;;;;;;;;;;;;;;;14.79;66.46;98491.09;1272304;23;721;-66
2023/03/14 01:43:30;;;;;;;;;;;;;;;14.78;66.71;98492.13;1271477;23;645;-66
2023/03/14 01:44:21;;;;;;;;;;;;;;;14.79;66.33;98488.41;1271517;23;688;-66
2023/03/14 01:45:11;;;;;;;;;;;;;;;14.79;66.89;98483.88;1272612;23;622;-66
2023/03/14 01:46:02;;;;;;;;;;;;;;;14.79;66.88;98489.25;1272287;23;622;-66
2023/03/14 01:46:52;;;;;;;;;;;;;;;14.78;66.89;98478.72;1271337;23;658;-66
2023/03/14 01:47:42;;;;;;;;;;;;;;;14.77;66.96;98472.50;1272796;23;649;-66
2023/03/14 01:48:33;;;;;;;;;;;;;;;14.78;66.51;98474.19;1273122;23;649;-66
2023/03/14 01:49:23;;;;;;;;;;;;;;;14.77;67.11;98477.88;1273979;23;641;-67
2023/03/14 01:50:14;;;;;;;;;;;;;;;14.78;67.05;98479.53;1271604;23;708;-66
2023/03/14 01:51:04;;;;;;;;;;;;;;;14.78;67.33;98481.38;1274334;23;657;-66
2023/03/14 01:51:55;;;;;;;;;;;;;;;14.78;66.99;98470.66;1272468;23;634;-67
2023/03/14 01:52:45;;;;;;;;;;;;;;;14.79;67.01;98475.00;1271210;23;614;-67
2023/03/14 01:53:35;;;;;;;;;;;;;;;14.78;67.07;98479.53;1272769;23;605;-67
2023/03/14 01:54:26;;;;;;;;;;;;;;;14.78;66.83;98471.50;1272958;23;685;-66
2023/03/14 01:55:16;;;;;;;;;;;;;;;14.78;67.13;98474.19;1272183;23;626;-66
2023/03/14 01:56:07;;;;;;;;;;;;;;;14.79;67.25;98470.47;1272277;23;626;-66
2023/03/14 01:56:57;;;;;;;;;;;;;;;14.79;67.10;98483.88;1272134;23;617;-66
2023/03/14 01:57:48;;;;;;;;;;;;;;;14.79;66.95;98467.81;1272557;23;688;-66
2023/03/14 01:58:39;;;;;;;;;;;;;;;14.78;67.05;98471.50;1272348;23;626;-66
2023/03/14 01:59:29;;;;;;;;;;;;;;;14.79;67.50;98473.16;1273179;23;613;-65
2023/03/14 02:00:20;;;;;;;;;;;;;;;14.79;67.26;98475.00;1272553;23;618;-66
2023/03/14 02:01:10;;;;;;;;;;;;;;;14.78;67.24;98468.81;1272691;23;637;-66
2023/03/14 02:02:01;;;;;;;;;;;;;;;14.79;67.29;98473.16;1271354;23;1897;-66
2023/03/14 02:02:51;;;;;;;;;;;;;;;14.79;67.22;98461.59;1271583;23;637;-66
2023/03/14 02:03:41;;;;;;;;;;;;;;;14.79;67.03;98470.47;1271318;23;649;-66
2023/03/14 02:04:32;;;;;;;;;;;;;;;14.79;67.19;98462.44;1271507;23;681;-66
2023/03/14 02:05:22;;;;;;;;;;;;;;;14.78;67.40;98465.31;1272243;23;669;-66
2023/03/14 02:06:13;;;;;;;;;;;;;;;14.78;67.25;98460.78;1271377;23;641;-66
2023/03/14 02:07:03;;;;;;;;;;;;;;;14.77;67.20;98464.47;1272402;23;630;-66
2023/03/14 02:07:53;;;;;;;;;;;;;;;14.78;67.46;98465.31;1272153;23;618;-66
2023/03/14 02:08:48;;;;;;;;;;;;;;;14.76;66.91;98459.28;1272536;23;653;-67
2023/03/14 02:09:38;;;;;;;;;;;;;;;14.76;67.00;98448.56;1273458;23;617;-66
2023/03/14 02:10:29;;;;;;;;;;;;;;;14.75;67.35;98445.06;1272160;23;625;-66
2023/03/14 02:11:19;;;;;;;;;;;;;;;14.72;67.38;98445.41;1272285;23;575;-66
2023/03/14 02:12:09;;;;;;;;;;;;;;;14.72;67.14;98439.22;1271373;23;646;-66
2023/03/14 02:13:00;;;;;;;;;;;;;;;14.74;67.37;98437.19;1272600;23;677;-66
2023/03/14 02:13:50;;;;;;;;;;;;;;;14.74;67.54;98445.22;1271389;23;658;-66
2023/03/14 02:14:46;;;;;;;;;;;;;;;14.74;67.70;98451.44;1272055;23;657;-66
2023/03/14 02:15:37;;;;;;;;;;;;;;;14.73;67.44;98449.75;1273162;23;622;-66
2023/03/14 02:16:27;;;;;;;;;;;;;;;14.72;67.85;98441.91;1273105;23;673;-66
2023/03/14 02:17:18;;;;;;;;;;;;;;;14.73;67.44;98443.56;1272363;23;637;-66
2023/03/14 02:18:08;;;;;;;;;;;;;;;14.73;67.24;98443.56;1272295;23;626;-66
2023/03/14 02:18:58;;;;;;;;;;;;;;;14.75;67.31;98446.91;1272155;23;633;-66
2023/03/14 02:19:49;;;;;;;;;;;;;;;14.76;67.32;98436.00;1272299;23;682;-66
2023/03/14 02:20:39;;;;;;;;;;;;;;;14.75;67.52;98439.69;1271492;23;700;-66
2023/03/14 02:21:30;;;;;;;;;;;;;;;14.74;67.27;98442.56;1272419;23;614;-66
2023/03/14 02:22:20;;;;;;;;;;;;;;;14.72;66.97;98439.22;1274096;23;606;-66
2023/03/14 02:23:11;;;;;;;;;;;;;;;14.72;67.19;98436.53;1271940;23;1102;-66
2023/03/14 02:24:01;;;;;;;;;;;;;;;14.73;67.57;98435.53;1272396;23;697;-66
2023/03/14 02:24:51;;;;;;;;;;;;;;;14.73;66.94;98436.34;1272140;23;669;-66
2023/03/14 02:25:42;;;;;;;;;;;;;;;14.73;67.20;98433.69;1272671;23;657;-66
2023/03/14 02:26:32;;;;;;;;;;;;;;;14.75;67.08;98450.41;1271566;23;606;-66
2023/03/14 02:27:23;;;;;;;;;;;;;;;14.74;67.29;98443.38;1272531;23;661;-66
2023/03/14 02:28:13;;;;;;;;;;;;;;;14.74;67.17;98437.19;1274141;23;634;-66
2023/03/14 02:29:04;;;;;;;;;;;;;;;14.73;67.45;98439.03;1272550;23;666;-66
2023/03/14 02:29:54;;;;;;;;;;;;;;;14.72;67.26;98440.06;1272529;23;563;-66
2023/03/14 02:30:44;;;;;;;;;;;;;;;14.72;66.89;98439.22;1272088;23;674;-66
2023/03/14 02:31:35;;;;;;;;;;;;;;;14.70;67.19;98428.69;1271988;23;645;-66
2023/03/14 02:32:25;;;;;;;;;;;;;;;14.71;67.16;98434.88;1270868;23;621;-65
2023/03/14 02:33:16;;;;;;;;;;;;;;;14.70;67.21;98434.03;1272493;23;664;-66
2023/03/14 02:34:06;;;;;;;;;;;;;;;14.70;67.40;98431.34;1272608;23;666;-65
2023/03/14 02:34:57;;;;;;;;;;;;;;;14.69;67.11;98427.00;1272480;23;634;-66
2023/03/14 02:35:47;;;;;;;;;;;;;;;14.69;67.24;98434.25;1274128;23;638;-66
2023/03/14 02:36:37;;;;;;;;;;;;;;;14.68;67.08;98436.09;1272434;23;615;-66
2023/03/14 02:37:28;;;;;;;;;;;;;;;14.69;67.22;98428.91;1271633;23;692;-66
2023/03/14 02:38:18;;;;;;;;;;;;;;;14.65;67.62;98436.47;1272381;23;654;-66
2023/03/14 02:39:09;;;;;;;;;;;;;;;14.65;67.31;98423.06;1272514;23;662;-66
2023/03/14 02:39:59;;;;;;;;;;;;;;;14.65;67.50;98427.59;1272586;23;681;-66
2023/03/14 02:40:49;;;;;;;;;;;;;;;14.65;67.11;98439.16;1272501;23;677;-66
2023/03/14 02:41:42;;;;;;;;;;;;;;;14.65;67.28;98428.44;1272277;23;1900;-66
2023/03/14 02:42:32;;;;;;;;;;;;;;;14.62;67.13;98423.44;1271554;23;586;-66
2023/03/14 02:43:23;;;;;;;;;;;;;;;14.62;67.43;98434.16;1272380;23;665;-66
2023/03/14 02:44:13;;;;;;;;;;;;;;;14.63;67.59;98419.72;1272637;23;641;-66
2023/03/14 02:45:04;;;;;;;;;;;;;;;14.64;67.62;98426.75;1274211;23;637;-66
2023/03/14 02:45:54;;;;;;;;;;;;;;;14.63;67.42;98424.25;1272613;23;633;-66
2023/03/14 02:46:44;;;;;;;;;;;;;;;14.63;67.37;98427.78;1271655;23;781;-66
2023/03/14 02:47:35;;;;;;;;;;;;;;;14.63;67.08;98425.09;1272404;23;661;-66
2023/03/14 02:48:25;;;;;;;;;;;;;;;14.64;67.33;98425.94;1272532;23;646;-66
2023/03/14 02:49:16;;;;;;;;;;;;;;;14.64;67.65;98421.41;1272533;23;622;-66
2023/03/14 02:50:06;;;;;;;;;;;;;;;14.62;67.85;98433.31;1272437;23;700;-66
2023/03/14 02:50:56;;;;;;;;;;;;;;;14.63;67.11;98419.72;1272450;23;669;-66
2023/03/14 02:51:47;;;;;;;;;;;;;;;14.62;67.35;98425.28;1271840;23;723;-66
2023/03/14 02:52:37;;;;;;;;;;;;;;;14.59;67.72;98421.09;1272420;23;562;-66
2023/03/14 02:53:28;;;;;;;;;;;;;;;14.61;67.63;98424.44;1272404;23;637;-66
2023/03/14 02:54:19;;;;;;;;;;;;;;;14.62;67.39;98418.06;1273350;23;1041;-66
2023/03/14 02:55:09;;;;;;;;;;;;;;;14.63;67.48;98419.72;1271459;23;626;-67
2023/03/14 02:56:00;;;;;;;;;;;;;;;14.63;67.75;98414.38;1272539;23;653;-66
2023/03/14 02:56:50;;;;;;;;;;;;;;;14.63;67.75;98418.91;1272648;23;688;-66
2023/03/14 02:57:41;;;;;;;;;;;;;;;14.61;67.25;98421.75;1272357;23;626;-66
2023/03/14 02:58:31;;;;;;;;;;;;;;;14.62;67.72;98417.22;1272525;23;629;-66
2023/03/14 02:59:21;;;;;;;;;;;;;;;14.62;67.25;98419.91;1271490;23;662;-66
2023/03/14 03:00:12;;;;;;;;;;;;;;;14.62;67.94;98420.75;1272523;23;661;-66
2023/03/14 03:01:02;;;;;;;;;;;;;;;14.62;67.69;98419.91;1271572;23;645;-66
2023/03/14 03:01:53;;;;;;;;;;;;;;;14.60;67.58;98414.72;1272446;23;1888;-66
2023/03/14 03:02:43;;;;;;;;;;;;;;;14.59;67.50;98416.59;1271765;23;644;-65
2023/03/14 03:03:33;;;;;;;;;;;;;;;14.59;67.44;98419.25;1272428;23;617;-65
2023/03/14 03:04:24;;;;;;;;;;;;;;;14.61;67.35;98421.75;1272484;23;652;-66
2023/03/14 03:05:14;;;;;;;;;;;;;;;14.59;67.75;98421.09;1272422;23;680;-66
2023/03/14 03:06:05;;;;;;;;;;;;;;;14.59;67.96;98413.06;1272375;23;669;-66
2023/03/14 03:06:55;;;;;;;;;;;;;;;14.60;67.48;98422.78;1273097;23;673;-66
2023/03/14 03:07:46;;;;;;;;;;;;;;;14.58;67.66;98417.59;1271904;23;641;-66
2023/03/14 03:08:36;;;;;;;;;;;;;;;14.59;68.03;98415.75;1272828;23;653;-66
2023/03/14 03:09:26;;;;;;;;;;;;;;;14.60;67.84;98414.72;1272644;23;661;-66
2023/03/14 03:10:17;;;;;;;;;;;;;;;14.59;68.15;98408.53;1272823;23;669;-66
2023/03/14 03:11:07;;;;;;;;;;;;;;;14.57;68.04;98410.56;1272644;23;638;-66
2023/03/14 03:11:58;;;;;;;;;;;;;;;14.58;67.62;98412.22;1272847;23;699;-66
2023/03/14 03:12:48;;;;;;;;;;;;;;;14.59;67.60;98413.06;1273671;23;648;-66
2023/03/14 03:13:39;;;;;;;;;;;;;;;14.58;68.05;98412.22;1272002;23;614;-66
2023/03/14 03:14:29;;;;;;;;;;;;;;;14.58;67.54;98409.56;1272097;23;672;-66
2023/03/14 03:15:19;;;;;;;;;;;;;;;14.61;67.67;98415.56;1272757;23;669;-66
2023/03/14 03:16:13;;;;;;;;;;;;;;;14.62;67.77;98415.38;1274385;23;636;-66
2023/03/14 03:17:03;;;;;;;;;;;;;;;14.61;67.91;98416.41;1272199;23;641;-66
2023/03/14 03:17:54;;;;;;;;;;;;;;;14.61;67.89;98408.34;1272828;23;646;-66
2023/03/14 03:18:44;;;;;;;;;;;;;;;14.62;67.91;98409.19;1272191;23;648;-66
2023/03/14 03:19:34;;;;;;;;;;;;;;;14.62;67.39;98407.34;1274501;23;605;-66
2023/03/14 03:20:25;;;;;;;;;;;;;;;14.61;67.58;98416.41;1272782;23;649;-66
2023/03/14 03:21:15;;;;;;;;;;;;;;;14.61;67.40;98407.53;1274601;23;751;-66
2023/03/14 03:22:06;;;;;;;;;;;;;;;14.61;67.66;98407.53;1272756;23;1927;-66
2023/03/14 03:22:56;;;;;;;;;;;;;;;14.59;68.12;98413.91;1272484;23;1067;-66
2023/03/14 03:23:47;;;;;;;;;;;;;;;14.59;67.87;98405.84;1272788;23;633;-66
2023/03/14 03:24:37;;;;;;;;;;;;;;;14.58;67.83;98406.03;1274381;23;681;-66
2023/03/14 03:25:27;;;;;;;;;;;;;;;14.57;67.87;98409.75;1272686;23;669;-66
2023/03/14 03:26:18;;;;;;;;;;;;;;;14.57;67.68;98405.22;1272837;23;645;-66
2023/03/14 03:27:08;;;;;;;;;;;;;;;14.58;67.49;98411.41;1274543;23;626;-66
2023/03/14 03:27:59;;;;;;;;;;;;;;;14.57;67.75;98404.38;1272812;23;633;-65
2023/03/14 03:28:49;;;;;;;;;;;;;;;14.57;67.92;98405.22;1272910;23;756;-66
2023/03/14 03:29:40;;;;;;;;;;;;;;;14.58;67.89;98411.41;1274452;23;613;-66
2023/03/14 03:30:30;;;;;;;;;;;;;;;14.57;67.65;98407.88;1272263;23;666;-65
2023/03/14 03:31:20;;;;;;;;;;;;;;;14.56;67.78;98403.53;1274477;23;649;-66
2023/03/14 03:32:11;;;;;;;;;;;;;;;14.54;67.51;98407.41;1272837;23;637;-66
2023/03/14 03:33:01;;;;;;;;;;;;;;;14.54;67.92;98404.75;1272245;23;649;-66
2023/03/14 03:33:52;;;;;;;;;;;;;;;14.54;67.64;98416.28;1272727;23;630;-66
2023/03/14 03:34:42;;;;;;;;;;;;;;;14.55;67.90;98401.03;1272882;23;654;-66
2023/03/14 03:35:33;;;;;;;;;;;;;;;14.54;67.92;98412.78;1274596;23;660;-66
2023/03/14 03:36:23;;;;;;;;;;;;;;;14.54;67.95;98404.75;1272662;23;646;-66
2023/03/14 03:37:13;;;;;;;;;;;;;;;14.54;67.91;98399.38;1272930;23;614;-66
2023/03/14 03:38:04;;;;;;;;;;;;;;;14.54;67.72;98405.56;1272698;23;704;-66
2023/03/14 03:38:54;;;;;;;;;;;;;;;14.55;67.56;98403.72;1271515;23;618;-66
2023/03/14 03:39:45;;;;;;;;;;;;;;;14.55;68.13;98417.13;1273229;23;765;-66
2023/03/14 03:40:35;;;;;;;;;;;;;;;14.55;68.22;98401.03;1273251;23;668;-66
2023/03/14 03:41:26;;;;;;;;;;;;;;;14.54;67.99;98402.91;1274160;23;673;-66
2023/03/14 03:42:16;;;;;;;;;;;;;;;14.54;67.66;98402.06;1273847;23;648;-66
2023/03/14 03:43:06;;;;;;;;;;;;;;;14.55;67.62;98406.41;1271879;23;649;-65
2023/03/14 03:43:57;;;;;;;;;;;;;;;14.54;67.39;98400.22;1272738;23;642;-65
2023/03/14 03:44:48;;;;;;;;;;;;;;;14.54;67.95;98396.69;1272197;23;657;-65
2023/03/14 03:45:38;;;;;;;;;;;;;;;14.53;67.81;98403.06;1272194;23;685;-66
2023/03/14 03:46:29;;;;;;;;;;;;;;;14.53;67.72;98397.72;1272516;23;633;-66
2023/03/14 03:47:19;;;;;;;;;;;;;;;14.53;67.96;98401.22;1272775;23;677;-66
2023/03/14 03:48:09;;;;;;;;;;;;;;;14.54;67.49;98399.38;1272720;23;628;-66
2023/03/14 03:49:00;;;;;;;;;;;;;;;14.52;68.17;98399.56;1272964;23;649;-66
2023/03/14 03:49:50;;;;;;;;;;;;;;;14.53;67.48;98398.53;1274680;23;823;-65
2023/03/14 03:50:41;;;;;;;;;;;;;;;14.53;67.67;98401.22;1272666;23;653;-66
2023/03/14 03:51:31;;;;;;;;;;;;;;;14.53;67.74;98397.72;1272764;23;692;-66
2023/03/14 03:52:22;;;;;;;;;;;;;;;14.53;68.17;98395.03;1272825;23;650;-66
2023/03/14 03:53:12;;;;;;;;;;;;;;;14.53;68.04;98398.53;1272789;23;657;-65
2023/03/14 03:54:02;;;;;;;;;;;;;;;14.52;67.93;98396.06;1273621;23;756;-66
2023/03/14 03:54:53;;;;;;;;;;;;;;;14.52;68.19;98396.06;1272046;23;662;-65
2023/03/14 03:55:43;;;;;;;;;;;;;;;14.52;68.11;98407.59;1272826;23;626;-66
2023/03/14 03:56:34;;;;;;;;;;;;;;;14.51;67.98;98405.13;1272699;23;650;-66
2023/03/14 03:57:24;;;;;;;;;;;;;;;14.52;68.15;98404.09;1272757;23;631;-66
2023/03/14 03:58:14;;;;;;;;;;;;;;;14.52;67.75;98401.41;1271857;23;752;-65
2023/03/14 03:59:05;;;;;;;;;;;;;;;14.51;68.32;98402.47;1272612;23;688;-65
2023/03/14 03:59:55;;;;;;;;;;;;;;;14.51;67.64;98397.09;1272831;23;622;-65
2023/03/14 04:00:46;;;;;;;;;;;;;;;14.51;68.09;98400.56;1272708;23;666;-65
2023/03/14 04:01:36;;;;;;;;;;;;;;;14.51;67.90;98394.41;1272800;23;665;-65
2023/03/14 04:02:27;;;;;;;;;;;;;;;14.50;67.88;98395.44;1272659;23;653;-66
2023/03/14 04:03:17;;;;;;;;;;;;;;;14.50;67.77;98395.44;1274286;23;637;-66
2023/03/14 04:04:07;;;;;;;;;;;;;;;14.51;68.17;98399.78;1274513;23;502;-66
2023/03/14 04:04:58;;;;;;;;;;;;;;;14.50;68.41;98398.13;1272007;23;614;-66
2023/03/14 04:05:48;;;;;;;;;;;;;;;14.48;67.62;98392.94;1272837;23;677;-65
2023/03/14 04:06:40;;;;;;;;;;;;;;;14.50;67.97;98398.94;1271830;23;626;-66
2023/03/14 04:07:30;;;;;;;;;;;;;;;14.49;67.85;98399.13;1273616;23;751;-66
2023/03/14 04:08:20;;;;;;;;;;;;;;;14.49;68.47;98396.44;1274491;23;639;-66
2023/03/14 04:09:11;;;;;;;;;;;;;;;14.48;68.15;98389.41;1272744;23;634;-66
2023/03/14 04:10:01;;;;;;;;;;;;;;;14.47;68.21;98399.31;1272772;23;665;-66
2023/03/14 04:10:52;;;;;;;;;;;;;;;14.49;67.96;98393.75;1271530;23;637;-66
2023/03/14 04:11:42;;;;;;;;;;;;;;;14.49;68.17;98397.28;1273084;23;685;-66
2023/03/14 04:12:32;;;;;;;;;;;;;;;14.49;68.20;98396.44;1273619;23;630;-66
2023/03/14 04:13:23;;;;;;;;;;;;;;;14.48;68.29;98390.25;1272613;23;618;-66
2023/03/14 04:14:13;;;;;;;;;;;;;;;14.49;67.69;98391.09;1274407;23;723;-66
2023/03/14 04:15:04;;;;;;;;;;;;;;;14.49;67.74;98380.38;1272697;23;635;-66
2023/03/14 04:15:54;;;;;;;;;;;;;;;14.49;68.12;98389.25;1272798;23;661;-66
2023/03/14 04:16:45;;;;;;;;;;;;;;;14.48;68.24;98397.47;1271833;23;642;-66
2023/03/14 04:17:35;;;;;;;;;;;;;;;14.46;68.16;98392.28;1271387;23;654;-66
2023/03/14 04:18:25;;;;;;;;;;;;;;;14.47;68.37;98393.13;1273175;23;669;-66
2023/03/14 04:19:16;;;;;;;;;;;;;;;14.46;68.10;98397.63;1273564;23;638;-66
2023/03/14 04:20:10;;;;;;;;;;;;;;;14.48;67.89;98400.13;1274484;23;621;-66
2023/03/14 04:21:00;;;;;;;;;;;;;;;14.47;68.15;98398.47;1273627;23;731;-66
2023/03/14 04:21:51;;;;;;;;;;;;;;;14.47;68.12;98395.78;1272480;23;1923;-66
2023/03/14 04:22:41;;;;;;;;;;;;;;;14.47;68.07;98403.84;1272910;23;614;-66
2023/03/14 04:23:33;;;;;;;;;;;;;;;14.47;68.17;98403.84;1274420;23;657;-66
2023/03/14 04:24:23;;;;;;;;;;;;;;;14.46;68.36;98404.84;1273557;23;637;-66
2023/03/14 04:25:16;;;;;;;;;;;;;;;14.46;67.80;98403.00;1271828;23;645;-66
2023/03/14 04:26:06;;;;;;;;;;;;;;;14.46;68.13;98396.81;1272000;23;657;-66
2023/03/14 04:26:57;;;;;;;;;;;;;;;14.46;68.16;98399.50;1272645;23;642;-66
2023/03/14 04:27:48;;;;;;;;;;;;;;;14.46;68.29;98394.13;1273571;23;613;-66
2023/03/14 04:28:38;;;;;;;;;;;;;;;14.46;68.26;98396.81;1273603;23;634;-66
2023/03/14 04:29:29;;;;;;;;;;;;;;;14.44;68.09;98401.50;1273596;23;693;-66